Arctic Village, AK

22:38 AKDT le 27 juillet 2016 (GMT -0800)
Arctic Village | | Change Station

Alt. 2090 ft 68.11 °N, 145.58 °W | Updated 2 minutes ago

Clear
Ciel dégagé
59 ° F
Paraît 59 ° F
N
0
Vent Variable Vent de Nord

Aujourd'hui
Haut(e) -- | Bas -- ° F
--% Risque de précip.
Hier
Haut(e) -- | Bas -- ° F
Precip. -- pouce
Pression 29.74 pouce
Visibilité 10.0 Miles terrestres
Nuages Ciel dégagé
Point de rosée 48 ° F
Humidité 67%
Précipitations 0.00 pouce
Profondeur de la couche neigeuse Non disponible.
3:31 AM 0:00 AM
Lune descendante, 35% visible
METAR PARC 280636Z AUTO 00000KT 10SM CLR 15/09 A2974 RMK AO1
Pression 29.74 pouce
Visibilité 10.0 Miles terrestres
Nuages Ciel dégagé
Point de rosée 48 ° F
Humidité 67%
Précipitations 0.00 pouce
Profondeur de la couche neigeuse Non disponible.
3:31 AM 0:00 AM
Lune descendante, 35% visible
METAR PARC 280636Z AUTO 00000KT 10SM CLR 15/09 A2974 RMK AO1

10-Day Weather Forecast

Almanac

Astronomie

Jul. 27, 2016 Lever Coucher
Temps réel
Crépuscule civil
Crépuscule nautique
Crépuscule astronomique
Lune
Durée de lumière visible
Longueur du jour
Tomorrow will be .
, % of the Moon is Illuminated

Extrêmes aujourd'hui

State Highs State Lows

Community

WunderPhotos

Upload Photos

1,928,064 Photos téléchargées !

WunderBlog® & News

Nearby

Qualité de l'air

  Qualité de l'air Indice de la qualité de l'air Polluant
Not available.

Épaisseur de neige

Station Depth Altitude

Activité sismique

Ville Distance Mag. Time & Date
Minimum magnitude displayed is 2.5.

Températures des eaux côtières

Lieu Température

Stations

Stations météo à proximité

Emplacement de la station Température Refroidissement éolien Point de rosée Humidité Vent Precip. Alt. Mise à jour Type
                   

Watches & Warnings

There are currently no watches in effect.